sensor_id;sensor_type;location;lat;lon;timestamp;temperature;humidity
21037;DHT22;10677;50.942;4.028;2023-02-15T00:01:55;5.50;99.90
21037;DHT22;10677;50.942;4.028;2023-02-15T00:04:23;5.50;99.90
21037;DHT22;10677;50.942;4.028;2023-02-15T00:06:50;5.60;99.90
21037;DHT22;10677;50.942;4.028;2023-02-15T00:09:15;5.60;99.90
21037;DHT22;10677;50.942;4.028;2023-02-15T00:11:42;5.60;99.90
21037;DHT22;10677;50.942;4.028;2023-02-15T00:14:19;5.60;99.90
21037;DHT22;10677;50.942;4.028;2023-02-15T00:16:46;5.50;99.90
21037;DHT22;10677;50.942;4.028;2023-02-15T00:19:13;5.50;99.90
21037;DHT22;10677;50.942;4.028;2023-02-15T00:21:39;5.50;99.90
21037;DHT22;10677;50.942;4.028;2023-02-15T00:24:07;5.50;99.90
21037;DHT22;10677;50.942;4.028;2023-02-15T00:26:34;5.40;99.90
21037;DHT22;10677;50.942;4.028;2023-02-15T00:29:00;5.30;99.90
21037;DHT22;10677;50.942;4.028;2023-02-15T00:31:30;5.30;99.90
21037;DHT22;10677;50.942;4.028;2023-02-15T00:34:17;5.20;99.90
21037;DHT22;10677;50.942;4.028;2023-02-15T00:36:44;5.10;99.90
21037;DHT22;10677;50.942;4.028;2023-02-15T00:39:11;5.00;99.90
21037;DHT22;10677;50.942;4.028;2023-02-15T00:41:36;5.00;99.90
21037;DHT22;10677;50.942;4.028;2023-02-15T00:44:02;5.10;99.90
21037;DHT22;10677;50.942;4.028;2023-02-15T00:46:28;5.00;99.90
21037;DHT22;10677;50.942;4.028;2023-02-15T00:48:54;5.00;99.90
21037;DHT22;10677;50.942;4.028;2023-02-15T00:51:19;4.90;99.90
21037;DHT22;10677;50.942;4.028;2023-02-15T00:53:46;5.00;99.90
21037;DHT22;10677;50.942;4.028;2023-02-15T00:56:11;4.90;99.90
21037;DHT22;10677;50.942;4.028;2023-02-15T00:58:37;5.00;99.90
21037;DHT22;10677;50.942;4.028;2023-02-15T01:01:08;5.10;99.90
21037;DHT22;10677;50.942;4.028;2023-02-15T01:03:34;5.20;99.90
21037;DHT22;10677;50.942;4.028;2023-02-15T01:06:01;5.20;99.90
21037;DHT22;10677;50.942;4.028;2023-02-15T01:08:27;5.20;99.90
21037;DHT22;10677;50.942;4.028;2023-02-15T01:10:52;5.20;99.90
21037;DHT22;10677;50.942;4.028;2023-02-15T01:13:18;5.20;99.90
21037;DHT22;10677;50.942;4.028;2023-02-15T01:15:52;5.10;99.90
21037;DHT22;10677;50.942;4.028;2023-02-15T01:18:18;5.00;99.90
21037;DHT22;10677;50.942;4.028;2023-02-15T01:20:45;5.10;99.90
21037;DHT22;10677;50.942;4.028;2023-02-15T01:23:10;5.30;99.90
21037;DHT22;10677;50.942;4.028;2023-02-15T01:25:36;5.10;99.90
21037;DHT22;10677;50.942;4.028;2023-02-15T01:28:03;5.20;99.90
21037;DHT22;10677;50.942;4.028;2023-02-15T01:30:28;5.30;99.90
21037;DHT22;10677;50.942;4.028;2023-02-15T01:32:54;5.20;99.90
21037;DHT22;10677;50.942;4.028;2023-02-15T01:35:20;5.20;99.90
21037;DHT22;10677;50.942;4.028;2023-02-15T01:37:46;5.10;99.90
21037;DHT22;10677;50.942;4.028;2023-02-15T01:40:15;5.00;99.90
21037;DHT22;10677;50.942;4.028;2023-02-15T01:42:41;5.00;99.90
21037;DHT22;10677;50.942;4.028;2023-02-15T01:45:28;5.00;99.90
21037;DHT22;10677;50.942;4.028;2023-02-15T01:48:13;5.00;99.90
21037;DHT22;10677;50.942;4.028;2023-02-15T01:50:45;4.80;99.90
21037;DHT22;10677;50.942;4.028;2023-02-15T01:53:25;4.70;99.90
21037;DHT22;10677;50.942;4.028;2023-02-15T01:55:53;4.70;99.90
21037;DHT22;10677;50.942;4.028;2023-02-15T01:58:22;4.50;99.90
21037;DHT22;10677;50.942;4.028;2023-02-15T02:00:48;4.30;99.90
21037;DHT22;10677;50.942;4.028;2023-02-15T02:03:14;4.30;99.90
21037;DHT22;10677;50.942;4.028;2023-02-15T02:05:41;4.40;99.90
21037;DHT22;10677;50.942;4.028;2023-02-15T02:08:07;4.40;99.90
21037;DHT22;10677;50.942;4.028;2023-02-15T02:10:35;4.40;99.90
21037;DHT22;10677;50.942;4.028;2023-02-15T02:13:03;4.30;99.90
21037;DHT22;10677;50.942;4.028;2023-02-15T02:15:57;4.20;99.90
21037;DHT22;10677;50.942;4.028;2023-02-15T02:29:51;4.30;99.90
21037;DHT22;10677;50.942;4.028;2023-02-15T02:38:07;4.50;99.90
21037;DHT22;10677;50.942;4.028;2023-02-15T02:43:40;4.30;99.90
21037;DHT22;10677;50.942;4.028;2023-02-15T02:46:22;4.40;99.90
21037;DHT22;10677;50.942;4.028;2023-02-15T02:48:50;4.30;99.90
21037;DHT22;10677;50.942;4.028;2023-02-15T02:51:16;4.20;99.90
21037;DHT22;10677;50.942;4.028;2023-02-15T02:53:51;4.00;99.90
21037;DHT22;10677;50.942;4.028;2023-02-15T02:56:29;4.00;99.90
21037;DHT22;10677;50.942;4.028;2023-02-15T02:59:35;4.00;99.90
21037;DHT22;10677;50.942;4.028;2023-02-15T03:02:10;3.90;99.90
21037;DHT22;10677;50.942;4.028;2023-02-15T03:04:41;4.00;99.90
21037;DHT22;10677;50.942;4.028;2023-02-15T03:07:12;4.00;99.90
21037;DHT22;10677;50.942;4.028;2023-02-15T03:09:43;3.90;99.90
21037;DHT22;10677;50.942;4.028;2023-02-15T03:12:13;3.90;99.90
21037;DHT22;10677;50.942;4.028;2023-02-15T03:14:41;4.00;99.90
21037;DHT22;10677;50.942;4.028;2023-02-15T03:17:11;3.90;99.90
21037;DHT22;10677;50.942;4.028;2023-02-15T03:19:38;3.90;99.90
21037;DHT22;10677;50.942;4.028;2023-02-15T03:22:13;3.90;99.90
21037;DHT22;10677;50.942;4.028;2023-02-15T03:24:46;4.00;99.90
21037;DHT22;10677;50.942;4.028;2023-02-15T03:27:17;4.00;99.90
21037;DHT22;10677;50.942;4.028;2023-02-15T03:29:47;4.10;99.90
21037;DHT22;10677;50.942;4.028;2023-02-15T03:32:14;3.90;99.90
21037;DHT22;10677;50.942;4.028;2023-02-15T03:34:41;3.80;99.90
21037;DHT22;10677;50.942;4.028;2023-02-15T03:37:14;3.80;99.90
21037;DHT22;10677;50.942;4.028;2023-02-15T03:39:49;3.80;99.90
21037;DHT22;10677;50.942;4.028;2023-02-15T03:42:22;3.80;99.90
21037;DHT22;10677;50.942;4.028;2023-02-15T03:47:34;4.00;99.90
21037;DHT22;10677;50.942;4.028;2023-02-15T03:50:18;4.00;99.90
21037;DHT22;10677;50.942;4.028;2023-02-15T03:53:07;4.00;99.90
21037;DHT22;10677;50.942;4.028;2023-02-15T03:55:34;4.00;99.90
21037;DHT22;10677;50.942;4.028;2023-02-15T03:58:01;3.90;99.90
21037;DHT22;10677;50.942;4.028;2023-02-15T04:00:57;3.90;99.90
21037;DHT22;10677;50.942;4.028;2023-02-15T04:03:52;3.90;99.90
21037;DHT22;10677;50.942;4.028;2023-02-15T04:06:20;3.80;99.90
21037;DHT22;10677;50.942;4.028;2023-02-15T04:08:46;3.80;99.90
21037;DHT22;10677;50.942;4.028;2023-02-15T04:11:30;3.80;99.90
21037;DHT22;10677;50.942;4.028;2023-02-15T04:13:56;3.80;99.90
21037;DHT22;10677;50.942;4.028;2023-02-15T04:16:24;3.80;99.90
21037;DHT22;10677;50.942;4.028;2023-02-15T04:18:50;3.80;99.90
21037;DHT22;10677;50.942;4.028;2023-02-15T04:21:34;3.60;99.90
21037;DHT22;10677;50.942;4.028;2023-02-15T04:24:18;3.60;99.90
21037;DHT22;10677;50.942;4.028;2023-02-15T04:27:04;3.70;99.90
21037;DHT22;10677;50.942;4.028;2023-02-15T04:29:30;3.70;99.90
21037;DHT22;10677;50.942;4.028;2023-02-15T04:31:57;3.70;99.90
21037;DHT22;10677;50.942;4.028;2023-02-15T04:34:23;3.60;99.90
21037;DHT22;10677;50.942;4.028;2023-02-15T04:36:49;3.50;99.90
21037;DHT22;10677;50.942;4.028;2023-02-15T04:39:17;3.50;99.90
21037;DHT22;10677;50.942;4.028;2023-02-15T04:41:43;3.60;99.90
21037;DHT22;10677;50.942;4.028;2023-02-15T04:44:09;3.60;99.90
21037;DHT22;10677;50.942;4.028;2023-02-15T04:46:34;3.60;99.90
21037;DHT22;10677;50.942;4.028;2023-02-15T04:49:00;3.70;99.90
21037;DHT22;10677;50.942;4.028;2023-02-15T04:51:26;3.70;99.90
21037;DHT22;10677;50.942;4.028;2023-02-15T04:53:51;3.70;99.90
21037;DHT22;10677;50.942;4.028;2023-02-15T04:56:20;3.80;99.90
21037;DHT22;10677;50.942;4.028;2023-02-15T04:58:46;3.80;99.90
21037;DHT22;10677;50.942;4.028;2023-02-15T05:01:12;3.80;99.90
21037;DHT22;10677;50.942;4.028;2023-02-15T05:03:38;3.70;99.90
21037;DHT22;10677;50.942;4.028;2023-02-15T05:06:04;3.80;99.90
21037;DHT22;10677;50.942;4.028;2023-02-15T05:08:30;3.80;99.90
21037;DHT22;10677;50.942;4.028;2023-02-15T05:10:56;3.90;99.90
21037;DHT22;10677;50.942;4.028;2023-02-15T05:13:22;3.90;99.90
21037;DHT22;10677;50.942;4.028;2023-02-15T05:15:50;3.80;99.90
21037;DHT22;10677;50.942;4.028;2023-02-15T05:18:16;3.90;99.90
21037;DHT22;10677;50.942;4.028;2023-02-15T05:20:42;3.90;99.90
21037;DHT22;10677;50.942;4.028;2023-02-15T05:23:08;3.90;99.90
21037;DHT22;10677;50.942;4.028;2023-02-15T05:25:34;3.90;99.90
21037;DHT22;10677;50.942;4.028;2023-02-15T05:28:18;3.80;99.90
21037;DHT22;10677;50.942;4.028;2023-02-15T05:30:49;3.80;99.90
21037;DHT22;10677;50.942;4.028;2023-02-15T05:33:16;3.70;99.90
21037;DHT22;10677;50.942;4.028;2023-02-15T05:35:41;3.70;99.90
21037;DHT22;10677;50.942;4.028;2023-02-15T05:38:07;3.60;99.90
21037;DHT22;10677;50.942;4.028;2023-02-15T05:40:33;3.60;99.90
21037;DHT22;10677;50.942;4.028;2023-02-15T05:42:58;3.50;99.90
21037;DHT22;10677;50.942;4.028;2023-02-15T05:45:24;3.70;99.90
21037;DHT22;10677;50.942;4.028;2023-02-15T05:47:50;3.50;99.90
21037;DHT22;10677;50.942;4.028;2023-02-15T05:50:16;3.50;99.90
21037;DHT22;10677;50.942;4.028;2023-02-15T05:52:41;3.40;99.90
21037;DHT22;10677;50.942;4.028;2023-02-15T05:55:07;3.50;99.90
21037;DHT22;10677;50.942;4.028;2023-02-15T05:57:34;3.40;99.90
21037;DHT22;10677;50.942;4.028;2023-02-15T06:00:00;3.50;99.90
21037;DHT22;10677;50.942;4.028;2023-02-15T06:02:26;3.40;99.90
21037;DHT22;10677;50.942;4.028;2023-02-15T06:04:52;3.30;99.90
21037;DHT22;10677;50.942;4.028;2023-02-15T06:07:17;3.30;99.90
21037;DHT22;10677;50.942;4.028;2023-02-15T06:09:43;3.30;99.90
21037;DHT22;10677;50.942;4.028;2023-02-15T06:12:09;3.30;99.90
21037;DHT22;10677;50.942;4.028;2023-02-15T06:14:34;3.30;99.90
21037;DHT22;10677;50.942;4.028;2023-02-15T06:17:00;3.30;99.90
21037;DHT22;10677;50.942;4.028;2023-02-15T06:19:25;3.40;99.90
21037;DHT22;10677;50.942;4.028;2023-02-15T06:21:51;3.40;99.90
21037;DHT22;10677;50.942;4.028;2023-02-15T06:24:17;3.50;99.90
21037;DHT22;10677;50.942;4.028;2023-02-15T06:26:42;3.50;99.90
21037;DHT22;10677;50.942;4.028;2023-02-15T06:29:08;3.60;99.90
21037;DHT22;10677;50.942;4.028;2023-02-15T06:31:34;3.50;99.90
21037;DHT22;10677;50.942;4.028;2023-02-15T06:33:59;3.50;99.90
21037;DHT22;10677;50.942;4.028;2023-02-15T06:36:28;3.50;99.90
21037;DHT22;10677;50.942;4.028;2023-02-15T06:38:54;3.60;99.90
21037;DHT22;10677;50.942;4.028;2023-02-15T06:41:20;3.60;99.90
21037;DHT22;10677;50.942;4.028;2023-02-15T06:43:46;3.70;99.90
21037;DHT22;10677;50.942;4.028;2023-02-15T06:46:11;3.80;99.90
21037;DHT22;10677;50.942;4.028;2023-02-15T06:48:37;3.90;99.90
21037;DHT22;10677;50.942;4.028;2023-02-15T06:51:03;3.80;99.90
21037;DHT22;10677;50.942;4.028;2023-02-15T06:53:28;3.80;99.90
21037;DHT22;10677;50.942;4.028;2023-02-15T06:56:01;3.80;99.90
21037;DHT22;10677;50.942;4.028;2023-02-15T06:58:28;3.70;99.90
21037;DHT22;10677;50.942;4.028;2023-02-15T07:00:54;3.70;99.90
21037;DHT22;10677;50.942;4.028;2023-02-15T07:03:19;3.70;99.90
21037;DHT22;10677;50.942;4.028;2023-02-15T07:05:45;3.80;99.90
21037;DHT22;10677;50.942;4.028;2023-02-15T07:08:13;3.60;99.90
21037;DHT22;10677;50.942;4.028;2023-02-15T07:10:38;3.60;99.90
21037;DHT22;10677;50.942;4.028;2023-02-15T07:13:04;3.60;99.90
21037;DHT22;10677;50.942;4.028;2023-02-15T07:15:36;3.70;99.90
21037;DHT22;10677;50.942;4.028;2023-02-15T07:18:02;3.70;99.90
21037;DHT22;10677;50.942;4.028;2023-02-15T07:20:28;3.70;99.90
21037;DHT22;10677;50.942;4.028;2023-02-15T07:22:54;3.70;99.90
21037;DHT22;10677;50.942;4.028;2023-02-15T07:25:20;3.80;99.90
21037;DHT22;10677;50.942;4.028;2023-02-15T07:27:47;3.80;99.90
21037;DHT22;10677;50.942;4.028;2023-02-15T07:30:15;3.80;99.90
21037;DHT22;10677;50.942;4.028;2023-02-15T07:32:42;3.90;99.90
21037;DHT22;10677;50.942;4.028;2023-02-15T07:35:26;3.90;99.90
21037;DHT22;10677;50.942;4.028;2023-02-15T07:37:52;4.00;99.90
21037;DHT22;10677;50.942;4.028;2023-02-15T07:40:19;4.10;99.90
21037;DHT22;10677;50.942;4.028;2023-02-15T07:42:48;4.10;99.90
21037;DHT22;10677;50.942;4.028;2023-02-15T07:45:15;4.20;99.90
21037;DHT22;10677;50.942;4.028;2023-02-15T07:47:41;4.30;99.90
21037;DHT22;10677;50.942;4.028;2023-02-15T07:50:09;4.30;99.90
21037;DHT22;10677;50.942;4.028;2023-02-15T07:52:35;4.30;99.90
21037;DHT22;10677;50.942;4.028;2023-02-15T07:55:01;4.40;99.90
21037;DHT22;10677;50.942;4.028;2023-02-15T07:57:28;4.60;99.90
21037;DHT22;10677;50.942;4.028;2023-02-15T07:59:53;4.60;99.90
21037;DHT22;10677;50.942;4.028;2023-02-15T08:02:19;4.60;99.90
21037;DHT22;10677;50.942;4.028;2023-02-15T08:04:45;4.60;99.90
21037;DHT22;10677;50.942;4.028;2023-02-15T08:07:11;4.60;99.90
21037;DHT22;10677;50.942;4.028;2023-02-15T08:09:36;4.70;99.90
21037;DHT22;10677;50.942;4.028;2023-02-15T08:12:04;4.60;99.90
21037;DHT22;10677;50.942;4.028;2023-02-15T08:14:30;4.60;99.90
21037;DHT22;10677;50.942;4.028;2023-02-15T08:16:59;4.70;99.90
21037;DHT22;10677;50.942;4.028;2023-02-15T08:19:30;4.70;99.90
21037;DHT22;10677;50.942;4.028;2023-02-15T08:22:02;4.80;99.90
21037;DHT22;10677;50.942;4.028;2023-02-15T08:24:34;4.80;99.90
21037;DHT22;10677;50.942;4.028;2023-02-15T08:27:03;4.90;99.90
21037;DHT22;10677;50.942;4.028;2023-02-15T08:29:30;5.00;99.90
21037;DHT22;10677;50.942;4.028;2023-02-15T08:32:03;5.10;99.90
21037;DHT22;10677;50.942;4.028;2023-02-15T08:34:36;5.10;99.90
21037;DHT22;10677;50.942;4.028;2023-02-15T08:37:02;5.20;99.90
21037;DHT22;10677;50.942;4.028;2023-02-15T08:39:28;5.20;99.90
21037;DHT22;10677;50.942;4.028;2023-02-15T08:41:54;5.10;99.90
21037;DHT22;10677;50.942;4.028;2023-02-15T08:44:20;5.20;99.90
21037;DHT22;10677;50.942;4.028;2023-02-15T08:46:47;5.30;99.90
21037;DHT22;10677;50.942;4.028;2023-02-15T08:49:17;5.40;99.90
21037;DHT22;10677;50.942;4.028;2023-02-15T08:51:43;5.40;99.90
21037;DHT22;10677;50.942;4.028;2023-02-15T08:54:13;5.50;99.90
21037;DHT22;10677;50.942;4.028;2023-02-15T08:56:40;5.50;99.90
21037;DHT22;10677;50.942;4.028;2023-02-15T08:59:11;5.60;99.90
21037;DHT22;10677;50.942;4.028;2023-02-15T09:01:37;5.70;99.90
21037;DHT22;10677;50.942;4.028;2023-02-15T09:04:05;5.70;99.90
21037;DHT22;10677;50.942;4.028;2023-02-15T09:06:37;5.90;99.90
21037;DHT22;10677;50.942;4.028;2023-02-15T09:09:04;6.00;99.90
21037;DHT22;10677;50.942;4.028;2023-02-15T09:11:33;6.10;99.90
21037;DHT22;10677;50.942;4.028;2023-02-15T09:14:03;6.20;99.90
21037;DHT22;10677;50.942;4.028;2023-02-15T09:16:31;6.20;99.90
21037;DHT22;10677;50.942;4.028;2023-02-15T09:18:57;6.30;99.90
21037;DHT22;10677;50.942;4.028;2023-02-15T09:21:25;6.40;99.90
21037;DHT22;10677;50.942;4.028;2023-02-15T09:23:57;6.50;99.90
21037;DHT22;10677;50.942;4.028;2023-02-15T09:26:23;6.50;99.90
21037;DHT22;10677;50.942;4.028;2023-02-15T09:28:55;6.60;99.90
21037;DHT22;10677;50.942;4.028;2023-02-15T09:31:24;6.80;99.90
21037;DHT22;10677;50.942;4.028;2023-02-15T09:33:51;7.00;99.90
21037;DHT22;10677;50.942;4.028;2023-02-15T09:36:23;7.10;99.90
21037;DHT22;10677;50.942;4.028;2023-02-15T09:38:58;7.10;99.90
21037;DHT22;10677;50.942;4.028;2023-02-15T09:51:07;7.70;99.90
21037;DHT22;10677;50.942;4.028;2023-02-15T09:56:14;7.80;99.90
21037;DHT22;10677;50.942;4.028;2023-02-15T10:01:28;7.90;99.90
21037;DHT22;10677;50.942;4.028;2023-02-15T10:15:13;8.70;99.90
21037;DHT22;10677;50.942;4.028;2023-02-15T10:26:31;9.10;99.90
21037;DHT22;10677;50.942;4.028;2023-02-15T10:29:09;9.30;99.90
21037;DHT22;10677;50.942;4.028;2023-02-15T10:32:37;9.30;99.90
21037;DHT22;10677;50.942;4.028;2023-02-15T10:35:01;9.30;99.90
21037;DHT22;10677;50.942;4.028;2023-02-15T10:40:20;9.40;99.90
21037;DHT22;10677;50.942;4.028;2023-02-15T10:43:16;9.50;99.90
21037;DHT22;10677;50.942;4.028;2023-02-15T10:51:50;10.10;99.90
21037;DHT22;10677;50.942;4.028;2023-02-15T10:59:59;10.30;99.90
21037;DHT22;10677;50.942;4.028;2023-02-15T11:08:09;10.20;99.90
21037;DHT22;10677;50.942;4.028;2023-02-15T11:10:37;10.10;99.90
21037;DHT22;10677;50.942;4.028;2023-02-15T11:13:19;10.20;99.90
21037;DHT22;10677;50.942;4.028;2023-02-15T11:18:36;10.20;99.90
21037;DHT22;10677;50.942;4.028;2023-02-15T11:21:20;10.10;99.90
21037;DHT22;10677;50.942;4.028;2023-02-15T11:23:47;10.10;99.90
21037;DHT22;10677;50.942;4.028;2023-02-15T11:26:29;10.20;99.90
21037;DHT22;10677;50.942;4.028;2023-02-15T11:29:41;10.30;99.90
21037;DHT22;10677;50.942;4.028;2023-02-15T11:40:48;10.20;99.90
21037;DHT22;10677;50.942;4.028;2023-02-15T11:45:53;10.20;99.90
21037;DHT22;10677;50.942;4.028;2023-02-15T11:48:20;10.40;99.90
21037;DHT22;10677;50.942;4.028;2023-02-15T11:50:45;10.50;99.90
21037;DHT22;10677;50.942;4.028;2023-02-15T11:53:17;10.70;99.90
21037;DHT22;10677;50.942;4.028;2023-02-15T11:55:45;11.00;99.90
21037;DHT22;10677;50.942;4.028;2023-02-15T12:01:17;10.90;99.90
21037;DHT22;10677;50.942;4.028;2023-02-15T12:03:57;10.90;99.90
21037;DHT22;10677;50.942;4.028;2023-02-15T12:06:30;10.90;99.90
21037;DHT22;10677;50.942;4.028;2023-02-15T12:09:20;11.10;99.90
21037;DHT22;10677;50.942;4.028;2023-02-15T12:11:49;11.10;99.90
21037;DHT22;10677;50.942;4.028;2023-02-15T12:14:15;11.00;99.90
21037;DHT22;10677;50.942;4.028;2023-02-15T12:16:51;11.00;99.90
21037;DHT22;10677;50.942;4.028;2023-02-15T12:19:30;11.00;99.90
21037;DHT22;10677;50.942;4.028;2023-02-15T12:21:57;11.20;99.90
21037;DHT22;10677;50.942;4.028;2023-02-15T12:24:27;11.30;99.90
21037;DHT22;10677;50.942;4.028;2023-02-15T12:27:17;11.40;99.90
21037;DHT22;10677;50.942;4.028;2023-02-15T12:30:06;11.50;99.90
21037;DHT22;10677;50.942;4.028;2023-02-15T12:32:54;11.70;99.90
21037;DHT22;10677;50.942;4.028;2023-02-15T12:35:33;11.90;99.90
21037;DHT22;10677;50.942;4.028;2023-02-15T12:38:19;12.20;99.90
21037;DHT22;10677;50.942;4.028;2023-02-15T12:40:58;12.20;99.90
21037;DHT22;10677;50.942;4.028;2023-02-15T12:46:23;12.70;99.90
21037;DHT22;10677;50.942;4.028;2023-02-15T12:49:17;12.80;99.90
21037;DHT22;10677;50.942;4.028;2023-02-15T12:51:54;12.90;99.90
21037;DHT22;10677;50.942;4.028;2023-02-15T12:54:34;12.90;99.90
21037;DHT22;10677;50.942;4.028;2023-02-15T12:57:26;12.90;99.90
21037;DHT22;10677;50.942;4.028;2023-02-15T12:59:55;13.00;99.90
21037;DHT22;10677;50.942;4.028;2023-02-15T13:04:49;13.20;99.90
21037;DHT22;10677;50.942;4.028;2023-02-15T13:07:15;13.30;99.90
21037;DHT22;10677;50.942;4.028;2023-02-15T13:09:41;13.40;99.90
21037;DHT22;10677;50.942;4.028;2023-02-15T13:14:47;13.70;99.90
21037;DHT22;10677;50.942;4.028;2023-02-15T13:17:16;13.70;99.90
21037;DHT22;10677;50.942;4.028;2023-02-15T13:19:52;13.70;99.90
21037;DHT22;10677;50.942;4.028;2023-02-15T13:22:37;13.70;99.90
21037;DHT22;10677;50.942;4.028;2023-02-15T13:25:20;13.80;99.90
21037;DHT22;10677;50.942;4.028;2023-02-15T13:27:51;13.80;99.90
21037;DHT22;10677;50.942;4.028;2023-02-15T13:30:28;13.80;99.90
21037;DHT22;10677;50.942;4.028;2023-02-15T13:33:25;13.80;99.90
21037;DHT22;10677;50.942;4.028;2023-02-15T13:36:16;13.80;99.90
21037;DHT22;10677;50.942;4.028;2023-02-15T13:38:46;13.70;99.90
21037;DHT22;10677;50.942;4.028;2023-02-15T13:52:20;13.60;99.90
21037;DHT22;10677;50.942;4.028;2023-02-15T13:58:14;13.50;99.90
21037;DHT22;10677;50.942;4.028;2023-02-15T14:03:42;13.70;99.90
21037;DHT22;10677;50.942;4.028;2023-02-15T14:18:29;13.90;99.90
21037;DHT22;10677;50.942;4.028;2023-02-15T14:21:10;13.90;99.90
21037;DHT22;10677;50.942;4.028;2023-02-15T14:32:02;14.40;99.90
21037;DHT22;10677;50.942;4.028;2023-02-15T14:34:53;14.40;99.90
21037;DHT22;10677;50.942;4.028;2023-02-15T14:40:08;14.50;99.90
21037;DHT22;10677;50.942;4.028;2023-02-15T14:43:11;14.60;99.90
21037;DHT22;10677;50.942;4.028;2023-02-15T14:48:46;15.20;99.90
21037;DHT22;10677;50.942;4.028;2023-02-15T14:54:09;15.60;99.90
21037;DHT22;10677;50.942;4.028;2023-02-15T14:56:36;15.50;99.90
21037;DHT22;10677;50.942;4.028;2023-02-15T14:59:18;15.60;99.90
21037;DHT22;10677;50.942;4.028;2023-02-15T15:01:57;15.60;99.90
21037;DHT22;10677;50.942;4.028;2023-02-15T15:07:22;16.00;99.90
21037;DHT22;10677;50.942;4.028;2023-02-15T15:15:15;16.40;99.90
21037;DHT22;10677;50.942;4.028;2023-02-15T15:18:10;16.30;99.90
21037;DHT22;10677;50.942;4.028;2023-02-15T15:20:54;15.80;99.90
21037;DHT22;10677;50.942;4.028;2023-02-15T15:25:56;15.00;99.90
21037;DHT22;10677;50.942;4.028;2023-02-15T15:31:16;14.70;99.90
21037;DHT22;10677;50.942;4.028;2023-02-15T15:37:23;14.40;99.90
21037;DHT22;10677;50.942;4.028;2023-02-15T15:50:19;14.00;99.90
21037;DHT22;10677;50.942;4.028;2023-02-15T15:52:55;13.80;99.90
21037;DHT22;10677;50.942;4.028;2023-02-15T15:55:24;13.70;99.90
21037;DHT22;10677;50.942;4.028;2023-02-15T15:57:53;13.50;99.90
21037;DHT22;10677;50.942;4.028;2023-02-15T16:00:32;13.40;99.90
21037;DHT22;10677;50.942;4.028;2023-02-15T16:02:58;13.30;99.90
21037;DHT22;10677;50.942;4.028;2023-02-15T16:05:24;13.20;99.90
21037;DHT22;10677;50.942;4.028;2023-02-15T16:07:50;13.20;99.90
21037;DHT22;10677;50.942;4.028;2023-02-15T16:10:27;13.20;99.90
21037;DHT22;10677;50.942;4.028;2023-02-15T16:12:54;13.20;99.90
21037;DHT22;10677;50.942;4.028;2023-02-15T16:15:23;13.10;99.90
21037;DHT22;10677;50.942;4.028;2023-02-15T16:17:56;13.00;99.90
21037;DHT22;10677;50.942;4.028;2023-02-15T16:20:33;13.00;99.90
21037;DHT22;10677;50.942;4.028;2023-02-15T16:23:45;12.90;99.90
21037;DHT22;10677;50.942;4.028;2023-02-15T16:28:36;12.60;99.90
21037;DHT22;10677;50.942;4.028;2023-02-15T16:31:15;12.50;99.90
21037;DHT22;10677;50.942;4.028;2023-02-15T16:33:42;12.40;99.90
21037;DHT22;10677;50.942;4.028;2023-02-15T16:36:20;12.30;99.90
21037;DHT22;10677;50.942;4.028;2023-02-15T16:41:23;12.10;99.90
21037;DHT22;10677;50.942;4.028;2023-02-15T16:43:51;11.90;99.90
21037;DHT22;10677;50.942;4.028;2023-02-15T16:46:32;11.90;99.90
21037;DHT22;10677;50.942;4.028;2023-02-15T16:49:02;11.90;99.90
21037;DHT22;10677;50.942;4.028;2023-02-15T16:51:30;11.80;99.90
21037;DHT22;10677;50.942;4.028;2023-02-15T16:54:07;11.70;99.90
21037;DHT22;10677;50.942;4.028;2023-02-15T16:56:33;11.70;99.90
21037;DHT22;10677;50.942;4.028;2023-02-15T16:59:00;11.60;99.90
21037;DHT22;10677;50.942;4.028;2023-02-15T17:01:28;11.60;99.90
21037;DHT22;10677;50.942;4.028;2023-02-15T17:04:31;11.50;99.90
21037;DHT22;10677;50.942;4.028;2023-02-15T17:07:16;11.50;99.90
21037;DHT22;10677;50.942;4.028;2023-02-15T17:09:56;11.40;99.90
21037;DHT22;10677;50.942;4.028;2023-02-15T17:12:47;11.50;99.90
21037;DHT22;10677;50.942;4.028;2023-02-15T17:15:30;11.50;99.90
21037;DHT22;10677;50.942;4.028;2023-02-15T17:18:18;11.40;99.90
21037;DHT22;10677;50.942;4.028;2023-02-15T17:20:46;11.20;99.90
21037;DHT22;10677;50.942;4.028;2023-02-15T17:25:57;11.10;99.90
21037;DHT22;10677;50.942;4.028;2023-02-15T17:28:26;11.00;99.90
21037;DHT22;10677;50.942;4.028;2023-02-15T17:30:54;11.00;99.90
21037;DHT22;10677;50.942;4.028;2023-02-15T17:38:35;10.80;99.90
21037;DHT22;10677;50.942;4.028;2023-02-15T17:41:01;10.80;99.90
21037;DHT22;10677;50.942;4.028;2023-02-15T17:43:46;10.80;99.90
21037;DHT22;10677;50.942;4.028;2023-02-15T17:46:12;10.70;99.90
21037;DHT22;10677;50.942;4.028;2023-02-15T17:48:40;10.70;99.90
21037;DHT22;10677;50.942;4.028;2023-02-15T17:51:10;10.70;99.90
21037;DHT22;10677;50.942;4.028;2023-02-15T17:53:36;10.60;99.90
21037;DHT22;10677;50.942;4.028;2023-02-15T17:56:02;10.60;99.90
21037;DHT22;10677;50.942;4.028;2023-02-15T17:58:36;10.50;99.90
21037;DHT22;10677;50.942;4.028;2023-02-15T18:01:14;10.50;99.90
21037;DHT22;10677;50.942;4.028;2023-02-15T18:04:00;10.40;99.90
21037;DHT22;10677;50.942;4.028;2023-02-15T18:06:44;10.40;99.90
21037;DHT22;10677;50.942;4.028;2023-02-15T18:09:28;10.30;99.90
21037;DHT22;10677;50.942;4.028;2023-02-15T18:12:17;10.30;99.90
21037;DHT22;10677;50.942;4.028;2023-02-15T18:14:44;10.30;99.90
21037;DHT22;10677;50.942;4.028;2023-02-15T18:17:13;10.30;99.90
21037;DHT22;10677;50.942;4.028;2023-02-15T18:19:40;10.30;99.90
21037;DHT22;10677;50.942;4.028;2023-02-15T18:22:12;10.30;99.90
21037;DHT22;10677;50.942;4.028;2023-02-15T18:24:39;10.30;99.90
21037;DHT22;10677;50.942;4.028;2023-02-15T18:27:05;10.20;99.90
21037;DHT22;10677;50.942;4.028;2023-02-15T18:29:31;10.10;99.90
21037;DHT22;10677;50.942;4.028;2023-02-15T18:31:57;10.20;99.90
21037;DHT22;10677;50.942;4.028;2023-02-15T18:34:28;10.20;99.90
21037;DHT22;10677;50.942;4.028;2023-02-15T18:36:55;10.20;99.90
21037;DHT22;10677;50.942;4.028;2023-02-15T18:41:56;10.20;99.90
21037;DHT22;10677;50.942;4.028;2023-02-15T18:44:22;10.10;99.90
21037;DHT22;10677;50.942;4.028;2023-02-15T18:46:48;10.10;99.90
21037;DHT22;10677;50.942;4.028;2023-02-15T18:49:13;10.10;99.90
21037;DHT22;10677;50.942;4.028;2023-02-15T18:51:41;10.10;99.90
21037;DHT22;10677;50.942;4.028;2023-02-15T18:54:33;10.00;99.90
21037;DHT22;10677;50.942;4.028;2023-02-15T18:57:00;9.90;99.90
21037;DHT22;10677;50.942;4.028;2023-02-15T18:59:27;9.90;99.90
21037;DHT22;10677;50.942;4.028;2023-02-15T19:01:56;9.80;99.90
21037;DHT22;10677;50.942;4.028;2023-02-15T19:04:22;9.80;99.90
21037;DHT22;10677;50.942;4.028;2023-02-15T19:06:48;9.80;99.90
21037;DHT22;10677;50.942;4.028;2023-02-15T19:09:22;9.80;99.90
21037;DHT22;10677;50.942;4.028;2023-02-15T19:11:55;9.60;99.90
21037;DHT22;10677;50.942;4.028;2023-02-15T19:14:29;9.50;99.90
21037;DHT22;10677;50.942;4.028;2023-02-15T19:16:55;9.50;99.90
21037;DHT22;10677;50.942;4.028;2023-02-15T19:19:22;9.50;99.90